createdAt,value
2018-09-05T00:00:06.959Z,71.15
2018-09-05T00:02:35.092Z,71.28
2018-09-05T00:05:03.641Z,71.51
2018-09-05T00:07:32.270Z,71.44
2018-09-05T00:10:00.369Z,71.99
2018-09-05T00:12:28.475Z,72.27
2018-09-05T00:14:56.584Z,72.78
2018-09-05T00:17:24.787Z,72.16
2018-09-05T00:19:53.247Z,72.67
2018-09-05T00:22:21.893Z,72.12
2018-09-05T00:24:50.005Z,72.57
2018-09-05T00:27:18.711Z,71.93
2018-09-05T00:29:47.157Z,71.79
2018-09-05T00:32:16.227Z,73.01
2018-09-05T00:34:44.684Z,72.41
2018-09-05T00:37:12.788Z,72.43
2018-09-05T00:39:41.603Z,72.92
2018-09-05T00:42:09.708Z,73.18
2018-09-05T00:44:38.175Z,73.22
2018-09-05T00:47:06.615Z,73.10
2018-09-05T00:49:34.734Z,73.18
2018-09-05T00:52:03.891Z,73.70
2018-09-05T00:54:32.328Z,73.50
2018-09-05T00:57:00.771Z,73.59
2018-09-05T00:59:29.206Z,73.98
2018-09-05T01:01:57.648Z,73.33
2018-09-05T01:04:25.979Z,74.04
2018-09-05T01:06:55.516Z,73.48
2018-09-05T01:09:23.825Z,74.01
2018-09-05T01:11:52.348Z,74.17
2018-09-05T01:14:20.776Z,73.92
2018-09-05T01:16:48.870Z,74.46
2018-09-05T01:19:17.299Z,74.54
2018-09-05T01:21:45.388Z,74.59
2018-09-05T01:24:13.587Z,74.76
2018-09-05T01:26:42.184Z,74.62
2018-09-05T01:29:10.538Z,75.35
2018-09-05T01:31:39.436Z,75.73
2018-09-05T01:34:07.562Z,75.98
2018-09-05T01:36:36.216Z,75.55
2018-09-05T01:39:06.267Z,75.40
2018-09-05T01:41:34.936Z,75.28
2018-09-05T01:44:03.383Z,75.00
2018-09-05T01:46:32.005Z,76.13
2018-09-05T01:49:00.446Z,76.51
2018-09-05T01:51:32.955Z,76.62
2018-09-05T01:54:02.107Z,76.07
2018-09-05T01:56:31.184Z,76.05
2018-09-05T01:58:59.619Z,76.07
2018-09-05T02:01:28.056Z,76.27
2018-09-05T02:03:56.688Z,76.54
2018-09-05T02:06:25.428Z,76.61
2018-09-05T02:08:55.650Z,76.71
2018-09-05T02:11:24.517Z,77.45
2018-09-05T02:13:52.615Z,76.82
2018-09-05T02:16:21.059Z,77.14
2018-09-05T02:18:49.536Z,77.01
2018-09-05T02:21:17.655Z,77.40
2018-09-05T02:23:45.768Z,76.54
2018-09-05T02:26:14.207Z,76.77
2018-09-05T02:28:42.311Z,76.59
2018-09-05T02:31:10.439Z,76.76
2018-09-05T02:33:38.931Z,76.97
2018-09-05T02:36:07.318Z,76.93
2018-09-05T02:38:35.736Z,76.01
2018-09-05T02:41:03.926Z,76.08
2018-09-05T02:43:37.306Z,76.61
2018-09-05T02:46:05.996Z,75.92
2018-09-05T02:48:34.454Z,76.52
2018-09-05T02:51:03.410Z,76.74
2018-09-05T02:53:31.942Z,76.87
2018-09-05T02:56:02.694Z,76.82
2018-09-05T02:58:32.716Z,76.88
2018-09-05T03:01:01.289Z,77.04
2018-09-05T03:03:29.998Z,77.69
2018-09-05T03:05:58.856Z,77.22
2018-09-05T03:08:27.459Z,77.51
2018-09-05T03:10:55.978Z,77.33
2018-09-05T03:13:24.623Z,77.49
2018-09-05T03:15:52.707Z,77.23
2018-09-05T03:18:20.827Z,76.95
2018-09-05T03:20:49.467Z,77.50
2018-09-05T03:23:17.627Z,77.86
2018-09-05T03:25:46.152Z,77.53
2018-09-05T03:28:14.436Z,78.01
2018-09-05T03:30:42.769Z,77.95
2018-09-05T03:33:10.871Z,78.00
2018-09-05T03:35:39.600Z,78.28
2018-09-05T03:38:08.048Z,78.60
2018-09-05T03:40:36.566Z,78.77
2018-09-05T03:43:05.016Z,78.25
2018-09-05T03:45:33.464Z,77.83
2018-09-05T03:48:01.563Z,77.76
2018-09-05T03:50:30.231Z,77.63
2018-09-05T03:52:58.328Z,78.18
2018-09-05T03:55:26.680Z,78.07
2018-09-05T03:57:54.904Z,77.83
2018-09-05T04:00:23.584Z,77.90
2018-09-05T04:02:51.683Z,78.20
2018-09-05T04:05:20.779Z,78.30
2018-09-05T04:07:51.077Z,78.22
2018-09-05T04:10:19.385Z,78.44
2018-09-05T04:12:47.719Z,78.68
2018-09-05T04:15:16.148Z,77.77
2018-09-05T04:17:44.504Z,78.71
2018-09-05T04:20:13.388Z,79.36
2018-09-05T04:22:41.837Z,78.89
2018-09-05T04:25:10.700Z,78.75
2018-09-05T04:27:38.803Z,79.16
2018-09-05T04:30:07.376Z,79.64
2018-09-05T04:32:35.771Z,79.47
2018-09-05T04:35:03.917Z,79.15
2018-09-05T04:37:32.029Z,80.28
2018-09-05T04:40:00.505Z,80.69
2018-09-05T04:42:29.112Z,80.67
2018-09-05T04:44:57.480Z,80.53
2018-09-05T04:47:26.106Z,80.91
2018-09-05T04:49:55.818Z,80.56
2018-09-05T04:52:24.288Z,79.66
2018-09-05T04:54:52.456Z,79.57
2018-09-05T04:57:21.095Z,79.14
2018-09-05T04:59:49.216Z,79.28
2018-09-05T05:02:17.652Z,79.33
2018-09-05T05:04:46.117Z,79.82
2018-09-05T05:07:14.243Z,80.19
2018-09-05T05:09:42.360Z,81.02
2018-09-05T05:12:10.793Z,81.32
2018-09-05T05:14:39.155Z,80.74
2018-09-05T05:17:07.477Z,81.04
2018-09-05T05:19:36.157Z,81.82
2018-09-05T05:22:04.266Z,81.45
2018-09-05T05:24:32.371Z,81.48
2018-09-05T05:27:00.492Z,82.06
2018-09-05T05:29:28.672Z,82.14
2018-09-05T05:31:56.828Z,82.04
2018-09-05T05:34:25.361Z,81.78
2018-09-05T05:36:54.239Z,82.16
2018-09-05T05:39:22.915Z,81.61
2018-09-05T05:41:51.473Z,81.59
2018-09-05T05:44:19.819Z,81.76
2018-09-05T05:46:47.953Z,81.80
2018-09-05T05:49:16.246Z,81.93
2018-09-05T05:51:44.397Z,81.47
2018-09-05T05:54:12.833Z,81.06
2018-09-05T05:56:41.285Z,81.03
2018-09-05T05:59:09.712Z,80.69
2018-09-05T06:01:38.425Z,80.08
2018-09-05T06:04:06.723Z,79.49
2018-09-05T06:06:35.167Z,79.95
2018-09-05T06:09:08.189Z,79.07
2018-09-05T06:11:36.300Z,78.47
2018-09-05T06:14:05.128Z,78.74
2018-09-05T06:16:33.932Z,77.95
2018-09-05T06:19:02.284Z,78.06
2018-09-05T06:21:30.457Z,77.43
2018-09-05T06:23:58.942Z,76.36
2018-09-05T06:26:27.548Z,76.16
2018-09-05T06:28:56.008Z,76.54
2018-09-05T06:31:24.484Z,75.09
2018-09-05T06:33:52.927Z,75.61
2018-09-05T06:36:21.618Z,74.29
2018-09-05T06:38:49.692Z,74.29
2018-09-05T06:41:18.260Z,74.23
2018-09-05T06:43:46.382Z,74.15
2018-09-05T06:46:14.503Z,74.66
2018-09-05T06:48:42.596Z,74.12
2018-09-05T06:51:10.724Z,72.67
2018-09-05T06:53:39.559Z,73.29
2018-09-05T06:56:08.572Z,72.86
2018-09-05T06:58:36.940Z,73.30
2018-09-05T07:01:05.655Z,72.64
2018-09-05T07:03:34.187Z,72.29
2018-09-05T07:06:02.772Z,72.28
2018-09-05T07:08:31.243Z,72.18
2018-09-05T07:11:00.194Z,71.91
2018-09-05T07:13:28.680Z,71.67
2018-09-05T07:15:57.262Z,71.47
2018-09-05T07:18:25.826Z,70.97
2018-09-05T07:21:05.684Z,70.29
2018-09-05T07:23:22.812Z,69.37
2018-09-05T07:25:51.279Z,68.71
2018-09-05T07:28:19.827Z,69.56
2018-09-05T07:30:48.375Z,68.68
2018-09-05T07:33:16.988Z,69.12
2018-09-05T07:35:45.621Z,68.17
2018-09-05T07:38:14.275Z,67.51
2018-09-05T07:40:42.719Z,66.52
2018-09-05T07:43:11.184Z,66.20
2018-09-05T07:45:39.288Z,67.10
2018-09-05T07:48:07.431Z,66.80
2018-09-05T07:50:35.765Z,67.12
2018-09-05T07:53:04.635Z,65.99
2018-09-05T07:55:33.123Z,65.85
2018-09-05T07:58:01.772Z,65.32
2018-09-05T08:00:30.556Z,65.40
2018-09-05T08:02:59.263Z,64.68
2018-09-05T08:05:27.848Z,63.35
2018-09-05T08:07:57.213Z,62.31
2018-09-05T08:10:25.808Z,63.09
2018-09-05T08:12:53.941Z,61.90
2018-09-05T08:15:22.389Z,62.75
2018-09-05T08:17:50.849Z,61.77
2018-09-05T08:20:19.283Z,61.40
2018-09-05T08:22:47.740Z,61.77
2018-09-05T08:25:16.191Z,61.32
2018-09-05T08:27:44.842Z,59.95
2018-09-05T08:30:13.285Z,60.78
2018-09-05T08:32:41.755Z,60.29
2018-09-05T08:35:10.357Z,61.07
2018-09-05T08:37:38.647Z,62.12
2018-09-05T08:40:07.826Z,61.75
2018-09-05T08:42:36.929Z,62.26
2018-09-05T08:45:06.455Z,61.67
2018-09-05T08:47:34.575Z,61.30
2018-09-05T08:50:02.834Z,60.59
2018-09-05T08:52:31.259Z,59.94
2018-09-05T08:55:00.001Z,60.11
2018-09-05T08:57:28.616Z,59.17
2018-09-05T08:59:56.744Z,59.65
2018-09-05T09:02:25.198Z,58.46
2018-09-05T09:04:53.553Z,58.30
2018-09-05T09:07:22.240Z,57.73
2018-09-05T09:09:50.372Z,58.29
2018-09-05T09:12:18.750Z,58.58
2018-09-05T09:14:47.221Z,57.96
2018-09-05T09:19:52.175Z,55.78
2018-09-05T09:22:20.264Z,55.31
2018-09-05T09:24:48.567Z,55.53
2018-09-05T09:27:17.036Z,56.57
2018-09-05T09:29:45.483Z,55.36
2018-09-05T09:32:14.105Z,55.42
2018-09-05T09:34:42.611Z,55.76
2018-09-05T09:37:11.500Z,56.17
2018-09-05T09:39:39.949Z,55.73
2018-09-05T09:42:08.625Z,56.31
2018-09-05T09:44:36.747Z,54.83
2018-09-05T09:47:05.211Z,53.53
2018-09-05T09:49:33.666Z,52.65
2018-09-05T09:52:07.825Z,52.92
2018-09-05T09:54:36.280Z,52.98
2018-09-05T09:57:04.468Z,51.22
2018-09-05T09:59:32.908Z,51.45
2018-09-05T10:02:06.676Z,51.49
2018-09-05T10:04:40.443Z,52.57
2018-09-05T10:07:15.717Z,50.72
2018-09-05T10:09:49.586Z,50.64
2018-09-05T10:12:23.615Z,49.71
2018-09-05T10:14:57.531Z,50.01
2018-09-05T10:17:33.971Z,51.60
2018-09-05T10:20:03.006Z,51.08
2018-09-05T10:22:32.206Z,49.15
2018-09-05T10:25:01.040Z,48.83
2018-09-05T10:27:31.091Z,47.19
2018-09-05T10:29:59.557Z,47.25
2018-09-05T10:32:27.991Z,48.62
2018-09-05T10:34:56.860Z,48.22
2018-09-05T10:37:26.011Z,47.33
2018-09-05T10:39:56.211Z,46.76
2018-09-05T10:42:24.668Z,47.07
2018-09-05T10:44:53.148Z,46.10
2018-09-05T10:47:21.589Z,45.00
2018-09-05T10:49:50.037Z,43.51
2018-09-05T10:52:18.675Z,43.55
2018-09-05T10:54:47.132Z,43.10
2018-09-05T10:57:15.424Z,44.55
2018-09-05T10:59:44.118Z,44.66
2018-09-05T11:02:12.229Z,43.07
2018-09-05T11:04:40.686Z,42.81
2018-09-05T11:07:09.141Z,42.49
2018-09-05T11:09:37.236Z,43.11
2018-09-05T11:12:05.792Z,43.40
2018-09-05T11:14:33.892Z,41.85
2018-09-05T11:17:02.339Z,43.13
2018-09-05T11:19:30.753Z,41.45
2018-09-05T11:21:58.999Z,42.41
2018-09-05T11:24:27.487Z,41.15
2018-09-05T11:26:55.804Z,41.04
2018-09-05T11:29:23.920Z,43.06
2018-09-05T11:31:52.360Z,42.11
2018-09-05T11:34:20.472Z,43.39
2018-09-05T11:36:48.579Z,44.10
2018-09-05T11:39:17.247Z,43.07
2018-09-05T11:41:45.408Z,42.91
2018-09-05T11:44:13.672Z,41.85
2018-09-05T11:46:42.131Z,41.88
2018-09-05T11:49:10.256Z,42.16
2018-09-05T11:51:38.607Z,41.21
2018-09-05T11:54:07.229Z,41.75
2018-09-05T11:56:35.556Z,38.25
2018-09-05T11:59:04.462Z,39.14
2018-09-05T12:01:32.916Z,39.84
2018-09-05T12:04:01.351Z,41.42
2018-09-05T12:06:29.789Z,40.48
2018-09-05T12:09:00.069Z,38.98
2018-09-05T12:11:28.181Z,38.75
2018-09-05T12:13:57.067Z,40.17
2018-09-05T12:16:25.191Z,40.96
2018-09-05T12:18:53.833Z,40.78
2018-09-05T12:21:23.967Z,40.41
2018-09-05T12:23:52.383Z,40.59
2018-09-05T12:26:21.325Z,39.50
2018-09-05T12:28:50.125Z,39.14
2018-09-05T12:31:18.610Z,40.03
2018-09-05T12:33:47.158Z,40.32
2018-09-05T12:36:15.879Z,39.61
2018-09-05T12:38:43.989Z,37.95
2018-09-05T12:41:12.762Z,39.03
2018-09-05T12:43:41.463Z,38.35
2018-09-05T12:46:09.691Z,39.76
2018-09-05T12:48:37.818Z,39.37
2018-09-05T12:51:06.703Z,39.35
2018-09-05T12:53:35.144Z,37.62
2018-09-05T12:56:03.275Z,37.59
2018-09-05T12:58:31.399Z,38.12
2018-09-05T13:01:00.090Z,38.37
2018-09-05T13:03:28.724Z,38.21
2018-09-05T13:05:57.605Z,36.22
2018-09-05T13:08:26.080Z,36.77
2018-09-05T13:10:54.401Z,37.96
2018-09-05T13:13:22.869Z,37.73
2018-09-05T13:15:51.372Z,37.44
2018-09-05T13:18:20.021Z,37.81
2018-09-05T13:20:48.472Z,37.52
2018-09-05T13:23:16.938Z,37.08
2018-09-05T13:25:45.391Z,37.65
2018-09-05T13:28:13.837Z,38.21
2018-09-05T13:30:41.959Z,37.81
2018-09-05T13:33:10.141Z,36.63
2018-09-05T13:35:38.726Z,36.38
2018-09-05T13:38:06.918Z,37.51
2018-09-05T13:40:35.363Z,38.35
2018-09-05T13:43:04.111Z,36.69
2018-09-05T13:45:32.468Z,36.35
2018-09-05T13:48:00.591Z,36.57
2018-09-05T13:50:28.696Z,37.21
2018-09-05T13:52:56.872Z,37.83
2018-09-05T13:55:25.363Z,36.38
2018-09-05T13:57:53.959Z,36.57
2018-09-05T14:00:22.981Z,36.61
2018-09-05T14:02:51.135Z,35.18
2018-09-05T14:05:19.766Z,35.98
2018-09-05T14:07:49.857Z,36.01
2018-09-05T14:10:18.884Z,36.05
2018-09-05T14:12:47.664Z,34.22
2018-09-05T14:15:16.379Z,34.13
2018-09-05T14:17:44.985Z,33.97
2018-09-05T14:20:13.473Z,36.41
2018-09-05T14:22:42.029Z,36.69
2018-09-05T14:25:10.160Z,36.43
2018-09-05T14:27:38.641Z,36.68
2018-09-05T14:30:06.952Z,34.38
2018-09-05T14:32:35.600Z,34.00
2018-09-05T14:35:04.548Z,32.87
2018-09-05T14:37:33.005Z,34.06
2018-09-05T14:40:01.532Z,35.47
2018-09-05T14:42:31.119Z,35.45
2018-09-05T14:44:59.492Z,34.68
2018-09-05T14:47:27.952Z,34.45
2018-09-05T14:49:56.137Z,33.74
2018-09-05T14:52:24.580Z,33.63
2018-09-05T14:54:53.597Z,33.31
2018-09-05T14:57:22.272Z,34.71
2018-09-05T14:59:50.773Z,34.84
2018-09-05T15:02:19.503Z,35.59
2018-09-05T15:04:48.212Z,35.26
2018-09-05T15:07:16.647Z,33.59
2018-09-05T15:09:45.093Z,32.42
2018-09-05T15:12:13.282Z,31.86
2018-09-05T15:14:41.609Z,32.42
2018-09-05T15:17:09.938Z,32.64
2018-09-05T15:19:38.635Z,33.57
2018-09-05T15:22:06.855Z,33.11
2018-09-05T15:24:35.605Z,33.40
2018-09-05T15:27:04.064Z,33.75
2018-09-05T15:29:32.516Z,33.96
2018-09-05T15:32:01.003Z,34.67
2018-09-05T15:34:29.704Z,34.68
2018-09-05T15:36:58.152Z,34.71
2018-09-05T15:39:26.689Z,34.31
2018-09-05T15:41:55.327Z,34.54
2018-09-05T15:44:23.772Z,36.20
2018-09-05T15:46:52.308Z,35.00
2018-09-05T15:49:20.981Z,33.83
2018-09-05T15:51:54.206Z,33.24
2018-09-05T15:54:23.908Z,33.99
2018-09-05T15:56:52.803Z,33.31
2018-09-05T15:59:21.423Z,34.32
2018-09-05T16:01:49.794Z,34.52
2018-09-05T16:04:18.436Z,34.71
2018-09-05T16:06:46.943Z,34.23
2018-09-05T16:09:15.481Z,35.09
2018-09-05T16:11:45.589Z,35.45
2018-09-05T16:14:13.717Z,35.21
2018-09-05T16:16:41.931Z,36.83
2018-09-05T16:19:10.276Z,36.73
2018-09-05T16:21:38.413Z,35.80
2018-09-05T16:24:06.935Z,37.18
2018-09-05T16:26:35.309Z,37.14
2018-09-05T16:29:04.016Z,38.03
2018-09-05T16:31:32.182Z,37.67
2018-09-05T16:34:00.737Z,36.80
2018-09-05T16:36:28.852Z,36.48
2018-09-05T16:38:56.980Z,37.31
2018-09-05T16:41:25.445Z,36.33
2018-09-05T16:43:53.908Z,37.51
2018-09-05T16:46:22.353Z,36.29
2018-09-05T16:48:50.814Z,37.16
2018-09-05T16:51:19.460Z,35.88
2018-09-05T16:53:47.572Z,35.84
2018-09-05T16:56:16.875Z,36.08
2018-09-05T16:58:45.963Z,36.35
2018-09-05T17:01:14.416Z,36.55
2018-09-05T17:03:42.865Z,36.49
2018-09-05T17:06:11.319Z,37.34
2018-09-05T17:08:39.463Z,37.00
2018-09-05T17:11:07.585Z,37.14
2018-09-05T17:13:36.251Z,37.15
2018-09-05T17:16:04.619Z,36.86
2018-09-05T17:18:33.435Z,36.94
2018-09-05T17:21:02.376Z,37.88
2018-09-05T17:23:30.829Z,37.14
2018-09-05T17:25:59.520Z,38.06
2018-09-05T17:28:30.496Z,37.87
2018-09-05T17:30:59.101Z,38.40
2018-09-05T17:33:27.596Z,38.96
2018-09-05T17:35:57.288Z,38.58
2018-09-05T17:38:26.768Z,39.78
2018-09-05T17:40:55.220Z,39.40
2018-09-05T17:43:23.367Z,39.89
2018-09-05T17:45:52.059Z,40.38
2018-09-05T17:48:21.481Z,39.89
2018-09-05T17:50:52.654Z,40.60
2018-09-05T17:53:21.384Z,40.65
2018-09-05T17:55:49.840Z,41.55
2018-09-05T17:58:18.755Z,41.48
2018-09-05T18:00:46.929Z,41.90
2018-09-05T18:03:15.038Z,42.23
2018-09-05T18:05:43.481Z,42.13
2018-09-05T18:08:12.223Z,42.88
2018-09-05T18:10:40.560Z,43.22
2018-09-05T18:13:09.636Z,43.69
2018-09-05T18:15:38.120Z,44.68
2018-09-05T18:18:07.740Z,44.62
2018-09-05T18:20:37.115Z,45.01
2018-09-05T18:23:05.360Z,44.36
2018-09-05T18:25:35.220Z,45.39
2018-09-05T18:28:03.664Z,45.29
2018-09-05T18:30:32.171Z,45.48
2018-09-05T18:33:00.624Z,45.95
2018-09-05T18:35:29.274Z,46.59
2018-09-05T18:37:57.754Z,46.79
2018-09-05T18:40:26.405Z,47.13
2018-09-05T18:42:54.558Z,47.70
2018-09-05T18:45:23.212Z,47.67
2018-09-05T18:47:51.326Z,47.84
2018-09-05T18:50:19.455Z,48.21
2018-09-05T18:52:47.917Z,47.51
2018-09-05T18:55:16.692Z,48.17
2018-09-05T18:57:45.183Z,48.69
2018-09-05T19:00:13.588Z,48.74
2018-09-05T19:02:42.079Z,48.31
2018-09-05T19:05:10.559Z,48.64
2018-09-05T19:07:38.675Z,48.65
2018-09-05T19:10:07.360Z,48.58
2018-09-05T19:12:35.806Z,48.67
2018-09-05T19:15:04.377Z,49.08
2018-09-05T19:17:32.844Z,49.02
2018-09-05T19:20:01.326Z,48.70
2018-09-05T19:22:29.815Z,48.59
2018-09-05T19:24:58.060Z,49.18
2018-09-05T19:27:26.217Z,49.74
2018-09-05T19:32:44.818Z,50.05
2018-09-05T19:35:13.092Z,49.86
2018-09-05T19:37:41.624Z,49.98
2018-09-05T19:40:10.185Z,49.99
2018-09-05T19:42:38.521Z,50.04
2018-09-05T19:45:07.217Z,49.88
2018-09-05T19:47:35.426Z,50.59
2018-09-05T19:50:04.533Z,50.41
2018-09-05T19:52:33.200Z,50.99
2018-09-05T19:55:01.312Z,50.67
2018-09-05T19:57:30.029Z,51.45
2018-09-05T19:59:58.404Z,51.33
2018-09-05T20:02:26.876Z,51.51
2018-09-05T20:04:55.333Z,52.32
2018-09-05T20:07:25.251Z,52.08
2018-09-05T20:09:53.580Z,52.55
2018-09-05T20:12:21.953Z,51.78
2018-09-05T20:14:50.328Z,52.55
2018-09-05T20:17:19.260Z,52.60
2018-09-05T20:19:47.716Z,51.96
2018-09-05T20:22:16.060Z,52.05
2018-09-05T20:24:44.508Z,52.68
2018-09-05T20:27:12.649Z,53.55
2018-09-05T20:29:40.972Z,52.86
2018-09-05T20:32:09.457Z,52.81
2018-09-05T20:34:37.585Z,53.86
2018-09-05T20:37:05.972Z,53.22
2018-09-05T20:39:34.100Z,52.57
2018-09-05T20:42:02.224Z,52.97
2018-09-05T20:44:30.686Z,53.59
2018-09-05T20:46:59.433Z,54.22
2018-09-05T20:49:27.781Z,54.52
2018-09-05T20:51:55.921Z,54.60
2018-09-05T20:54:24.408Z,54.62
2018-09-05T20:56:52.868Z,55.28
2018-09-05T20:59:21.000Z,55.38
2018-09-05T21:01:49.145Z,55.43
2018-09-05T21:04:17.596Z,55.95
2018-09-05T21:06:48.753Z,56.25
2018-09-05T21:09:18.165Z,56.49
2018-09-05T21:11:46.297Z,55.64
2018-09-05T21:14:14.766Z,55.76
2018-09-05T21:16:43.237Z,56.18
2018-09-05T21:19:11.380Z,56.93
2018-09-05T21:21:40.054Z,56.35
2018-09-05T21:24:08.401Z,56.39
2018-09-05T21:26:36.925Z,56.94
2018-09-05T21:29:05.556Z,57.46
2018-09-05T21:31:34.033Z,56.83
2018-09-05T21:34:02.553Z,57.25
2018-09-05T21:36:31.142Z,57.24
2018-09-05T21:38:59.345Z,57.71
2018-09-05T21:41:27.619Z,57.81
2018-09-05T21:43:56.284Z,58.73
2018-09-05T21:46:24.957Z,59.21
2018-09-05T21:48:54.004Z,58.96
2018-09-05T21:51:22.135Z,58.91
2018-09-05T21:53:50.292Z,59.17
2018-09-05T21:56:18.432Z,60.16
2018-09-05T21:58:46.584Z,59.79
2018-09-05T22:01:16.193Z,60.23
2018-09-05T22:03:44.362Z,60.94
2018-09-05T22:06:13.197Z,60.72
2018-09-05T22:08:41.549Z,60.86
2018-09-05T22:11:15.128Z,60.07
2018-09-05T22:13:43.539Z,60.68
2018-09-05T22:16:11.884Z,60.49
2018-09-05T22:18:40.225Z,60.62
2018-09-05T22:21:08.700Z,61.09
2018-09-05T22:23:37.227Z,60.48
2018-09-05T22:26:07.157Z,60.80
2018-09-05T22:28:35.932Z,60.20
2018-09-05T22:31:04.388Z,60.22
2018-09-05T22:33:32.520Z,61.08
2018-09-05T22:36:00.644Z,60.75
2018-09-05T22:38:28.792Z,60.53
2018-09-05T22:40:57.252Z,60.92
2018-09-05T22:43:37.479Z,60.88
2018-09-05T22:46:17.016Z,61.48
2018-09-05T22:48:56.581Z,61.80
2018-09-05T22:52:10.885Z,61.30
2018-09-05T22:54:56.009Z,62.10
2018-09-05T22:58:40.380Z,61.41
2018-09-05T23:01:19.269Z,61.86
2018-09-05T23:04:05.169Z,62.88
2018-09-05T23:06:43.525Z,62.24
2018-09-05T23:09:12.017Z,63.19
2018-09-05T23:11:49.290Z,62.51
2018-09-05T23:15:28.955Z,63.28
2018-09-05T23:18:11.261Z,62.98
2018-09-05T23:21:05.010Z,63.07
2018-09-05T23:23:44.344Z,63.26
2018-09-05T23:26:12.828Z,62.88
2018-09-05T23:28:40.993Z,63.04
2018-09-05T23:31:09.466Z,63.55
2018-09-05T23:33:37.969Z,62.75
2018-09-05T23:36:06.185Z,63.07
2018-09-05T23:38:34.349Z,63.84
2018-09-05T23:41:03.097Z,63.98
2018-09-05T23:43:31.657Z,64.27
2018-09-05T23:46:00.733Z,64.33
2018-09-05T23:48:29.452Z,63.88
2018-09-05T23:50:58.001Z,64.22
2018-09-05T23:53:26.514Z,63.83
2018-09-05T23:55:54.813Z,64.10
2018-09-05T23:58:23.892Z,64.38
